WetterOnline ( http://www.wetteronline.de )

Wetter aktuell Bremervörde

Aktuelles Wetter: Bremervörde (5m)

6-stündlich | Neueste Meldungen
Ortszeit Temperatur Wetter
So, 21.10. 2:00 8.9° C bewölkt
Sa, 20.10. 20:00 8.9° C bewölkt
Sa, 20.10. 14:00 13.8° C bedeckt
Sa, 20.10. 8:00 3.9° C bedeckt
Sa, 20.10. 2:00 1.3° C leicht bewölkt
Fr, 19.10. 20:00 6.4° C wolkig
Fr, 19.10. 14:00 12.9° C leicht bewölkt
Fr, 19.10. 8:00 2.0° C bedeckt
Ortszeit Temperatur Wetter
So, 21.10. 5:00 8.9° C bedeckt
So, 21.10. 4:50 8.9° C bedeckt
So, 21.10. 4:40 9.0° C bewölkt
So, 21.10. 4:30 8.8° C bedeckt
So, 21.10. 4:20 8.8° C bedeckt
So, 21.10. 4:10 8.8° C bedeckt
So, 21.10. 4:00 8.8° C wolkig
So, 21.10. 3:30 8.3° C bedeckt
So, 21.10. 3:00 8.6° C bedeckt
So, 21.10. 2:30 8.2° C wolkig
So, 21.10. 2:00 8.9° C bewölkt
Ortszeit Relative Feuchte Sichtweite
So, 21.10. 2:00 99% 2.1 km
Sa, 20.10. 20:00 98% 6 km
Sa, 20.10. 14:00 68% 17 km
Sa, 20.10. 8:00 93% 8 km
Sa, 20.10. 2:00 98% 3.4 km
Fr, 19.10. 20:00 90% 30 km
Fr, 19.10. 14:00 57% 30 km
Fr, 19.10. 8:00 99% 3.2 km
Ortszeit Relative Feuchte Sichtweite
So, 21.10. 5:00 98% 1.7 km
So, 21.10. 4:50 98% -
So, 21.10. 4:40 98% -
So, 21.10. 4:30 98% 1.8 km
So, 21.10. 4:20 98% -
So, 21.10. 4:10 98% -
So, 21.10. 4:00 99% 2.2 km
So, 21.10. 3:30 100% 1.3 km
So, 21.10. 3:00 99% 1.6 km
So, 21.10. 2:30 98% 1.4 km
So, 21.10. 2:00 99% 2.1 km
Ortszeit Niederschlagsmenge Niederschlagsart
So, 21.10. 2:00 0.0 l/m2 in 6 Std. -
Sa, 20.10. 20:00 0.1 l/m2 in 12 Std. -
Sa, 20.10. 14:00 0.1 l/m2 in 6 Std. Sprühregen
Sa, 20.10. 8:00 0.0 l/m2 in 12 Std. -
Sa, 20.10. 2:00 0.0 l/m2 in 6 Std. -
Fr, 19.10. 20:00 0.0 l/m2 in 12 Std. -
Fr, 19.10. 14:00 0.0 l/m2 in 3 Std. -
Fr, 19.10. 8:00 0.0 l/m2 in 12 Std. -
Ortszeit Niederschlagsmenge Niederschlagsart
So, 21.10. 5:00 0.0 l/m2 in 1 Std. -
So, 21.10. 4:50 keine Meldung -
So, 21.10. 4:40 keine Meldung -
So, 21.10. 4:30 0.0 l/m2 in 1 Std. -
So, 21.10. 4:20 keine Meldung -
So, 21.10. 4:10 keine Meldung -
So, 21.10. 4:00 0.0 l/m2 in 1 Std. -
So, 21.10. 3:30 0.0 l/m2 in 1 Std. -
So, 21.10. 3:00 0.0 l/m2 in 1 Std. -
So, 21.10. 2:30 0.0 l/m2 in 1 Std. -
So, 21.10. 2:00 0.0 l/m2 in 1 Std. -
Ortszeit Stärke Spitze Richtung
km/h Bft. km/h Grad Sektor
So, 21.10. 2:00 9 2 11 230° SW
Sa, 20.10. 20:00 4 1 29 300° NW
Sa, 20.10. 14:00 17 3 26 270° W
Sa, 20.10. 8:00 7 2 14 250° W
Sa, 20.10. 2:00 6 1 7 170° S
Fr, 19.10. 20:00 0 0 14 - -
Fr, 19.10. 14:00 4 1 14 360° N
Fr, 19.10. 8:00 0 0 7 - -
Ortszeit Stärke Spitze Richtung
km/h Bft. km/h Grad Sektor
So, 21.10. 5:00 7 2 11 230° SW
So, 21.10. 4:50 7 2 - 230° SW
So, 21.10. 4:40 7 2 - 230° SW
So, 21.10. 4:30 7 2 11 240° SW
So, 21.10. 4:20 7 2 - 240° SW
So, 21.10. 4:10 7 2 - 230° SW
So, 21.10. 4:00 7 2 7 220° SW
So, 21.10. 3:30 6 1 7 240° SW
So, 21.10. 3:00 7 2 11 240° SW
So, 21.10. 2:30 7 2 11 250° W
So, 21.10. 2:00 9 2 11 230° SW
Ortszeit Untergrenze Bedeckung Gattung
total tief tief mittel hoch
So, 21.10. 2:00 1110 m 7/8 7/8 - - -
Sa, 20.10. 20:00 780 m 8/8 5/8 - - -
Sa, 20.10. 14:00 1410 m 8/8 8/8 - - -
Sa, 20.10. 8:00 1350 m 8/8 8/8 - - -
Sa, 20.10. 2:00 1230 m 2/8 2/8 - - -
Fr, 19.10. 20:00 7500 m 8/8 0/8 - - -
Fr, 19.10. 14:00 930 m 4/8 4/8 - - -
Fr, 19.10. 8:00 990 m 8/8 8/8 - - -
Ortszeit Bedeckungsgrad in Achtel und Wolkenuntergrenze
So, 21.10. 5:00 8(960m) 8(1200m) 8(2700m)
So, 21.10. 4:50 8(960m) 8(1200m) 8(2700m)
So, 21.10. 4:40 7(960m)
So, 21.10. 4:30 7(990m) 8(2700m) 8(2700m)
So, 21.10. 4:20 7(990m) 8(2700m)
So, 21.10. 4:10 6(990m) 8(2700m)
So, 21.10. 4:00 1(1140m) 8(3000m)
So, 21.10. 3:30 8(3000m)
So, 21.10. 3:00 8(2700m) 8(3300m)
So, 21.10. 2:30 2(1080m) 6(3000m) 8(3600m)
So, 21.10. 2:00 7(1110m) 7(3900m)
Ortszeit Luftdruck NN (hPa) Tendenz (hPa in 3 Std.)
So, 21.10. 2:00 1029 - 0,2
Sa, 20.10. 20:00 1030 + 0,5
Sa, 20.10. 14:00 1029 - 0,3
Sa, 20.10. 8:00 1029 + 1,2
Sa, 20.10. 2:00 1028 + 0,1
Fr, 19.10. 20:00 1027 + 0,7
Fr, 19.10. 14:00 1027 - 0,8
Fr, 19.10. 8:00 1027 + 0,4
Ortszeit Luftdruck NN (hPa) Tendenz (hPa in 3 Std.)
So, 21.10. 5:00 1029 - 0,7
So, 21.10. 4:50 1029 keine Meldung
So, 21.10. 4:40 1029 keine Meldung
So, 21.10. 4:30 1029 - 0,9
So, 21.10. 4:20 1029 keine Meldung
So, 21.10. 4:10 1029 keine Meldung
So, 21.10. 4:00 1029 - 0,7
So, 21.10. 3:30 1029 - 0,6
So, 21.10. 3:00 1029 - 0,5
So, 21.10. 2:30 1029 - 0,3
So, 21.10. 2:00 1029 - 0,2
Ortszeit Schneehöhe (cm)
So, 21.10. 2:00 -
Sa, 20.10. 20:00 -
Sa, 20.10. 14:00 0
Sa, 20.10. 8:00 0
Sa, 20.10. 2:00 0
Fr, 19.10. 20:00 0
Fr, 19.10. 14:00 0
Fr, 19.10. 8:00 -
Ortszeit Schneehöhe (cm)
So, 21.10. 5:00 -
So, 21.10. 4:50 -
So, 21.10. 4:40 -
So, 21.10. 4:30 -
So, 21.10. 4:20 -
So, 21.10. 4:10 -
So, 21.10. 4:00 -
So, 21.10. 3:30 -
So, 21.10. 3:00 -
So, 21.10. 2:30 -
So, 21.10. 2:00 -
Link zu dieser Seite / Seite empfehlen

Das Wetter in ...